Airfield :
LOGIN :

Register | Disclaimer

   EN    FR    IT 

 










Legend :    VFR   Marginal VFR   IFR   Intensive IFR   Very Intensive IFR
Visi :
Ceiling :
>= 8 km
>= 3000ft
5 to 8 km
1000 to 3000 ft
1500m to 5 km
500 to 1000 ft
800 to 1500m
200 to 500 ft
< 800m
< 200 ft
Symbols :   Thunderstorms  Fog  Heavy snow  Heavy precipitations  Wind > 20 kt
SIGMETs :     Misc.  Thunderstorms  Icing  Turbulence  Mountain Waves  Volcanic Ashes






- Airport Elevation : 230 ft
- IATA code : VAR


LBWN - Varna

CURRENT METAR :
  • 281630Z 07006KT 040V100 9999 FEW034 17/09 Q1021 NOSIG

EXPIRED METARs :
  • 281600Z 06008KT 9999 FEW034 17/09 Q1021 NOSIG
  • 281530Z 07007KT 040V100 9999 SCT034 17/09 Q1021 NOSIG
  • 281500Z 10008KT 9999 SCT034 17/10 Q1021 NOSIG
  • 281430Z 08008KT 9999 SCT034 17/10 Q1021 NOSIG
  • 281400Z 10009KT 9999 BKN034 17/10 Q1021 NOSIG

TAF TAF LBWN
Valid from the 28 at 12:00 until the 29 at 12:00 UTC


281100Z 2812/2912 12012KT 9999 SCT020 BKN030
BECMG 2818/2820 02010KT
BECMG 2908/2910 09012KT
TEMPO 2910/2912 5000 RA SCT010 BKN020



MET'MAP, your aeronautical weather chart ! - Copyright ORBIFLY December 2007 - Disclaimer

ORBIFLY MET'MAP TEAM :

Programming & Development : Alexandra Zaïnal
Concept & original design : Baudouin d'Aumeries
Assistance for programming : Marc-Olivier Méhu
Technical & hardware support : Manuel Goepfert

Contact : metmap@orbifly.com




SOURCES & CREDITS :

   NOAA